sensor_id;sensor_type;location;lat;lon;timestamp;P1;durP1;ratioP1;P2;durP2;ratioP2
57047;SDS011;42934;54.294;18.598;2023-07-31T00:01:00;2.28;;;1.30;;
57047;SDS011;42934;54.294;18.598;2023-07-31T00:03:29;1.88;;;1.23;;
57047;SDS011;42934;54.294;18.598;2023-07-31T00:05:59;1.73;;;1.10;;
57047;SDS011;42934;54.294;18.598;2023-07-31T00:08:28;6.28;;;1.50;;
57047;SDS011;42934;54.294;18.598;2023-07-31T00:10:57;1.33;;;1.23;;
57047;SDS011;42934;54.294;18.598;2023-07-31T00:13:27;2.88;;;1.60;;
57047;SDS011;42934;54.294;18.598;2023-07-31T00:15:57;3.58;;;1.50;;
57047;SDS011;42934;54.294;18.598;2023-07-31T00:18:27;2.17;;;1.45;;
57047;SDS011;42934;54.294;18.598;2023-07-31T00:20:56;2.70;;;1.35;;
57047;SDS011;42934;54.294;18.598;2023-07-31T00:23:25;2.75;;;1.50;;
57047;SDS011;42934;54.294;18.598;2023-07-31T00:25:54;4.07;;;1.60;;
57047;SDS011;42934;54.294;18.598;2023-07-31T00:28:24;3.95;;;1.50;;
57047;SDS011;42934;54.294;18.598;2023-07-31T00:30:54;2.63;;;1.60;;
57047;SDS011;42934;54.294;18.598;2023-07-31T00:33:27;2.25;;;1.92;;
57047;SDS011;42934;54.294;18.598;2023-07-31T00:35:56;3.15;;;1.48;;
57047;SDS011;42934;54.294;18.598;2023-07-31T00:38:25;5.50;;;1.63;;
57047;SDS011;42934;54.294;18.598;2023-07-31T00:40:54;3.47;;;1.67;;
57047;SDS011;42934;54.294;18.598;2023-07-31T00:43:25;4.43;;;1.40;;
57047;SDS011;42934;54.294;18.598;2023-07-31T00:45:54;1.63;;;1.50;;
57047;SDS011;42934;54.294;18.598;2023-07-31T00:48:24;3.80;;;1.60;;
57047;SDS011;42934;54.294;18.598;2023-07-31T00:50:56;4.18;;;1.55;;
57047;SDS011;42934;54.294;18.598;2023-07-31T00:53:25;5.05;;;1.90;;
57047;SDS011;42934;54.294;18.598;2023-07-31T00:55:55;3.10;;;2.00;;
57047;SDS011;42934;54.294;18.598;2023-07-31T00:58:25;2.05;;;1.85;;
57047;SDS011;42934;54.294;18.598;2023-07-31T01:00:54;6.85;;;2.08;;
57047;SDS011;42934;54.294;18.598;2023-07-31T01:03:24;3.08;;;1.63;;
57047;SDS011;42934;54.294;18.598;2023-07-31T01:05:57;2.67;;;1.77;;
57047;SDS011;42934;54.294;18.598;2023-07-31T01:08:37;4.07;;;2.03;;
57047;SDS011;42934;54.294;18.598;2023-07-31T01:11:14;2.63;;;1.90;;
57047;SDS011;42934;54.294;18.598;2023-07-31T01:13:47;4.35;;;1.90;;
57047;SDS011;42934;54.294;18.598;2023-07-31T01:16:17;3.28;;;2.00;;
57047;SDS011;42934;54.294;18.598;2023-07-31T01:18:46;3.38;;;1.90;;
57047;SDS011;42934;54.294;18.598;2023-07-31T01:21:21;5.90;;;2.20;;
57047;SDS011;42934;54.294;18.598;2023-07-31T01:24:08;4.28;;;1.85;;
57047;SDS011;42934;54.294;18.598;2023-07-31T01:26:55;3.40;;;1.90;;
57047;SDS011;42934;54.294;18.598;2023-07-31T01:29:31;3.00;;;2.00;;
57047;SDS011;42934;54.294;18.598;2023-07-31T01:32:06;2.58;;;2.00;;
57047;SDS011;42934;54.294;18.598;2023-07-31T01:34:37;4.15;;;2.28;;
57047;SDS011;42934;54.294;18.598;2023-07-31T01:37:08;5.22;;;2.45;;
57047;SDS011;42934;54.294;18.598;2023-07-31T01:39:38;5.78;;;2.30;;
57047;SDS011;42934;54.294;18.598;2023-07-31T01:42:08;5.20;;;2.50;;
57047;SDS011;42934;54.294;18.598;2023-07-31T01:44:38;2.55;;;2.05;;
57047;SDS011;42934;54.294;18.598;2023-07-31T01:47:07;2.47;;;1.88;;
57047;SDS011;42934;54.294;18.598;2023-07-31T01:49:36;2.20;;;2.00;;
57047;SDS011;42934;54.294;18.598;2023-07-31T01:52:06;2.20;;;1.95;;
57047;SDS011;42934;54.294;18.598;2023-07-31T01:54:36;4.97;;;2.10;;
57047;SDS011;42934;54.294;18.598;2023-07-31T01:57:06;4.28;;;2.10;;
57047;SDS011;42934;54.294;18.598;2023-07-31T01:59:37;3.55;;;1.88;;
57047;SDS011;42934;54.294;18.598;2023-07-31T02:02:06;3.38;;;1.90;;
57047;SDS011;42934;54.294;18.598;2023-07-31T02:04:35;3.33;;;1.70;;
57047;SDS011;42934;54.294;18.598;2023-07-31T02:07:07;3.00;;;1.60;;
57047;SDS011;42934;54.294;18.598;2023-07-31T02:09:37;5.57;;;1.80;;
57047;SDS011;42934;54.294;18.598;2023-07-31T02:12:06;3.42;;;1.75;;
57047;SDS011;42934;54.294;18.598;2023-07-31T02:14:37;1.98;;;1.55;;
57047;SDS011;42934;54.294;18.598;2023-07-31T02:17:06;1.40;;;1.30;;
57047;SDS011;42934;54.294;18.598;2023-07-31T02:19:36;5.78;;;1.70;;
57047;SDS011;42934;54.294;18.598;2023-07-31T02:22:05;2.42;;;1.50;;
57047;SDS011;42934;54.294;18.598;2023-07-31T02:24:34;4.47;;;1.70;;
57047;SDS011;42934;54.294;18.598;2023-07-31T02:27:04;2.53;;;1.60;;
57047;SDS011;42934;54.294;18.598;2023-07-31T02:29:35;3.65;;;1.67;;
57047;SDS011;42934;54.294;18.598;2023-07-31T02:32:04;2.45;;;1.70;;
57047;SDS011;42934;54.294;18.598;2023-07-31T02:34:35;2.92;;;1.63;;
57047;SDS011;42934;54.294;18.598;2023-07-31T02:37:04;2.28;;;1.70;;
57047;SDS011;42934;54.294;18.598;2023-07-31T02:39:34;2.67;;;1.70;;
57047;SDS011;42934;54.294;18.598;2023-07-31T02:42:03;1.98;;;1.52;;
57047;SDS011;42934;54.294;18.598;2023-07-31T02:44:33;4.45;;;1.60;;
57047;SDS011;42934;54.294;18.598;2023-07-31T02:47:03;2.92;;;1.60;;
57047;SDS011;42934;54.294;18.598;2023-07-31T02:49:33;4.55;;;1.70;;
57047;SDS011;42934;54.294;18.598;2023-07-31T02:52:03;2.65;;;1.50;;
57047;SDS011;42934;54.294;18.598;2023-07-31T02:57:02;3.15;;;1.70;;
57047;SDS011;42934;54.294;18.598;2023-07-31T02:59:31;2.83;;;1.70;;
57047;SDS011;42934;54.294;18.598;2023-07-31T03:02:02;4.00;;;1.48;;
57047;SDS011;42934;54.294;18.598;2023-07-31T03:04:32;3.35;;;1.70;;
57047;SDS011;42934;54.294;18.598;2023-07-31T03:07:01;2.85;;;1.67;;
57047;SDS011;42934;54.294;18.598;2023-07-31T03:09:30;2.47;;;1.55;;
57047;SDS011;42934;54.294;18.598;2023-07-31T03:11:59;3.58;;;1.98;;
57047;SDS011;42934;54.294;18.598;2023-07-31T03:14:29;4.60;;;1.80;;
57047;SDS011;42934;54.294;18.598;2023-07-31T03:16:58;7.55;;;2.20;;
57047;SDS011;42934;54.294;18.598;2023-07-31T03:19:31;4.93;;;1.70;;
57047;SDS011;42934;54.294;18.598;2023-07-31T03:22:00;4.72;;;2.10;;
57047;SDS011;42934;54.294;18.598;2023-07-31T03:24:30;3.65;;;2.00;;
57047;SDS011;42934;54.294;18.598;2023-07-31T03:26:59;5.80;;;2.33;;
57047;SDS011;42934;54.294;18.598;2023-07-31T03:29:28;2.88;;;1.52;;
57047;SDS011;42934;54.294;18.598;2023-07-31T03:31:57;7.47;;;2.47;;
57047;SDS011;42934;54.294;18.598;2023-07-31T03:37:00;3.45;;;1.95;;
57047;SDS011;42934;54.294;18.598;2023-07-31T03:39:30;4.40;;;2.28;;
57047;SDS011;42934;54.294;18.598;2023-07-31T03:41:59;4.65;;;2.22;;
57047;SDS011;42934;54.294;18.598;2023-07-31T03:44:29;6.30;;;2.08;;
57047;SDS011;42934;54.294;18.598;2023-07-31T03:46:58;5.88;;;2.03;;
57047;SDS011;42934;54.294;18.598;2023-07-31T03:49:27;3.78;;;2.00;;
57047;SDS011;42934;54.294;18.598;2023-07-31T03:51:56;3.83;;;2.10;;
57047;SDS011;42934;54.294;18.598;2023-07-31T03:54:27;6.15;;;2.17;;
57047;SDS011;42934;54.294;18.598;2023-07-31T03:56:56;3.72;;;2.00;;
57047;SDS011;42934;54.294;18.598;2023-07-31T03:59:26;3.70;;;2.00;;
57047;SDS011;42934;54.294;18.598;2023-07-31T04:01:55;2.92;;;2.20;;
57047;SDS011;42934;54.294;18.598;2023-07-31T04:04:24;3.83;;;2.00;;
57047;SDS011;42934;54.294;18.598;2023-07-31T04:06:54;6.77;;;2.20;;
57047;SDS011;42934;54.294;18.598;2023-07-31T04:09:23;5.77;;;2.03;;
57047;SDS011;42934;54.294;18.598;2023-07-31T04:11:54;5.90;;;2.13;;
57047;SDS011;42934;54.294;18.598;2023-07-31T04:14:23;7.68;;;2.10;;
57047;SDS011;42934;54.294;18.598;2023-07-31T04:16:52;4.18;;;2.22;;
57047;SDS011;42934;54.294;18.598;2023-07-31T04:19:22;5.40;;;2.05;;
57047;SDS011;42934;54.294;18.598;2023-07-31T04:21:51;5.53;;;2.45;;
57047;SDS011;42934;54.294;18.598;2023-07-31T04:24:20;4.03;;;2.33;;
57047;SDS011;42934;54.294;18.598;2023-07-31T04:26:51;5.95;;;2.45;;
57047;SDS011;42934;54.294;18.598;2023-07-31T04:29:22;7.20;;;2.90;;
57047;SDS011;42934;54.294;18.598;2023-07-31T04:31:51;3.78;;;1.98;;
57047;SDS011;42934;54.294;18.598;2023-07-31T04:34:20;5.70;;;2.20;;
57047;SDS011;42934;54.294;18.598;2023-07-31T04:36:49;5.57;;;2.10;;
57047;SDS011;42934;54.294;18.598;2023-07-31T04:39:19;9.85;;;2.53;;
57047;SDS011;42934;54.294;18.598;2023-07-31T04:41:48;7.32;;;2.47;;
57047;SDS011;42934;54.294;18.598;2023-07-31T04:44:19;6.47;;;2.70;;
57047;SDS011;42934;54.294;18.598;2023-07-31T04:46:48;7.85;;;2.35;;
57047;SDS011;42934;54.294;18.598;2023-07-31T04:49:17;9.40;;;2.42;;
57047;SDS011;42934;54.294;18.598;2023-07-31T04:51:47;6.20;;;2.37;;
57047;SDS011;42934;54.294;18.598;2023-07-31T04:54:16;8.02;;;2.60;;
57047;SDS011;42934;54.294;18.598;2023-07-31T04:56:45;10.13;;;2.28;;
57047;SDS011;42934;54.294;18.598;2023-07-31T04:59:15;6.80;;;2.60;;
57047;SDS011;42934;54.294;18.598;2023-07-31T05:01:46;9.10;;;2.83;;
57047;SDS011;42934;54.294;18.598;2023-07-31T05:04:15;5.25;;;2.25;;
57047;SDS011;42934;54.294;18.598;2023-07-31T05:06:44;7.10;;;2.70;;
57047;SDS011;42934;54.294;18.598;2023-07-31T05:09:14;5.68;;;2.42;;
57047;SDS011;42934;54.294;18.598;2023-07-31T05:11:43;7.03;;;2.22;;
57047;SDS011;42934;54.294;18.598;2023-07-31T05:14:12;6.95;;;2.05;;
57047;SDS011;42934;54.294;18.598;2023-07-31T05:16:42;7.55;;;2.30;;
57047;SDS011;42934;54.294;18.598;2023-07-31T05:19:13;3.83;;;2.08;;
57047;SDS011;42934;54.294;18.598;2023-07-31T05:21:42;5.07;;;1.92;;
57047;SDS011;42934;54.294;18.598;2023-07-31T05:24:11;4.50;;;2.08;;
57047;SDS011;42934;54.294;18.598;2023-07-31T05:26:41;8.20;;;2.00;;
57047;SDS011;42934;54.294;18.598;2023-07-31T05:29:10;7.72;;;2.40;;
57047;SDS011;42934;54.294;18.598;2023-07-31T05:31:39;5.32;;;2.10;;
57047;SDS011;42934;54.294;18.598;2023-07-31T05:34:09;7.82;;;2.20;;
57047;SDS011;42934;54.294;18.598;2023-07-31T05:36:39;6.57;;;1.85;;
57047;SDS011;42934;54.294;18.598;2023-07-31T05:39:09;6.05;;;2.03;;
57047;SDS011;42934;54.294;18.598;2023-07-31T05:41:38;5.88;;;2.35;;
57047;SDS011;42934;54.294;18.598;2023-07-31T05:44:07;5.65;;;2.00;;
57047;SDS011;42934;54.294;18.598;2023-07-31T05:46:36;7.18;;;2.10;;
57047;SDS011;42934;54.294;18.598;2023-07-31T05:49:06;5.93;;;1.90;;
57047;SDS011;42934;54.294;18.598;2023-07-31T05:51:36;6.93;;;1.90;;
57047;SDS011;42934;54.294;18.598;2023-07-31T05:54:07;7.80;;;2.15;;
57047;SDS011;42934;54.294;18.598;2023-07-31T05:56:36;3.38;;;1.75;;
57047;SDS011;42934;54.294;18.598;2023-07-31T05:59:05;9.32;;;2.17;;
57047;SDS011;42934;54.294;18.598;2023-07-31T06:01:36;3.17;;;1.63;;
57047;SDS011;42934;54.294;18.598;2023-07-31T06:04:05;4.67;;;2.10;;
57047;SDS011;42934;54.294;18.598;2023-07-31T06:06:36;5.40;;;1.70;;
57047;SDS011;42934;54.294;18.598;2023-07-31T06:09:07;4.70;;;1.77;;
57047;SDS011;42934;54.294;18.598;2023-07-31T06:11:36;4.00;;;1.70;;
57047;SDS011;42934;54.294;18.598;2023-07-31T06:14:05;5.50;;;1.88;;
57047;SDS011;42934;54.294;18.598;2023-07-31T06:16:35;5.50;;;1.80;;
57047;SDS011;42934;54.294;18.598;2023-07-31T06:19:04;5.78;;;2.13;;
57047;SDS011;42934;54.294;18.598;2023-07-31T06:21:34;6.65;;;1.95;;
57047;SDS011;42934;54.294;18.598;2023-07-31T06:24:04;7.28;;;1.95;;
57047;SDS011;42934;54.294;18.598;2023-07-31T06:26:35;5.70;;;1.83;;
57047;SDS011;42934;54.294;18.598;2023-07-31T06:29:05;6.32;;;1.60;;
57047;SDS011;42934;54.294;18.598;2023-07-31T06:31:34;6.43;;;1.65;;
57047;SDS011;42934;54.294;18.598;2023-07-31T06:34:03;5.15;;;1.73;;
57047;SDS011;42934;54.294;18.598;2023-07-31T06:36:33;6.05;;;1.67;;
57047;SDS011;42934;54.294;18.598;2023-07-31T06:39:02;6.97;;;1.85;;
57047;SDS011;42934;54.294;18.598;2023-07-31T06:41:33;7.30;;;1.95;;
57047;SDS011;42934;54.294;18.598;2023-07-31T06:44:05;5.53;;;1.52;;
57047;SDS011;42934;54.294;18.598;2023-07-31T06:46:35;6.60;;;1.67;;
57047;SDS011;42934;54.294;18.598;2023-07-31T06:49:05;5.38;;;1.60;;
57047;SDS011;42934;54.294;18.598;2023-07-31T06:51:34;3.72;;;1.45;;
57047;SDS011;42934;54.294;18.598;2023-07-31T06:54:05;4.65;;;1.40;;
57047;SDS011;42934;54.294;18.598;2023-07-31T06:56:37;6.07;;;1.75;;
57047;SDS011;42934;54.294;18.598;2023-07-31T06:59:07;8.40;;;1.40;;
57047;SDS011;42934;54.294;18.598;2023-07-31T07:01:36;5.80;;;1.80;;
57047;SDS011;42934;54.294;18.598;2023-07-31T07:04:06;4.43;;;1.33;;
57047;SDS011;42934;54.294;18.598;2023-07-31T07:06:35;5.00;;;1.50;;
57047;SDS011;42934;54.294;18.598;2023-07-31T07:09:05;3.28;;;1.30;;
57047;SDS011;42934;54.294;18.598;2023-07-31T07:11:35;4.43;;;1.63;;
57047;SDS011;42934;54.294;18.598;2023-07-31T07:14:06;3.88;;;1.27;;
57047;SDS011;42934;54.294;18.598;2023-07-31T07:16:35;7.63;;;1.50;;
57047;SDS011;42934;54.294;18.598;2023-07-31T07:19:05;6.47;;;1.63;;
57047;SDS011;42934;54.294;18.598;2023-07-31T07:21:34;3.38;;;1.23;;
57047;SDS011;42934;54.294;18.598;2023-07-31T07:24:04;4.47;;;1.60;;
57047;SDS011;42934;54.294;18.598;2023-07-31T07:26:33;3.63;;;1.23;;
57047;SDS011;42934;54.294;18.598;2023-07-31T07:29:02;4.50;;;1.45;;
57047;SDS011;42934;54.294;18.598;2023-07-31T07:31:36;5.22;;;1.40;;
57047;SDS011;42934;54.294;18.598;2023-07-31T07:34:05;3.85;;;1.60;;
57047;SDS011;42934;54.294;18.598;2023-07-31T07:36:34;4.80;;;1.30;;
57047;SDS011;42934;54.294;18.598;2023-07-31T07:39:04;5.15;;;1.40;;
57047;SDS011;42934;54.294;18.598;2023-07-31T07:41:34;3.63;;;1.30;;
57047;SDS011;42934;54.294;18.598;2023-07-31T07:44:04;3.63;;;1.48;;
57047;SDS011;42934;54.294;18.598;2023-07-31T07:46:33;2.53;;;1.25;;
57047;SDS011;42934;54.294;18.598;2023-07-31T07:49:04;3.97;;;1.48;;
57047;SDS011;42934;54.294;18.598;2023-07-31T07:51:34;4.43;;;1.40;;
57047;SDS011;42934;54.294;18.598;2023-07-31T07:56:33;8.40;;;1.42;;
57047;SDS011;42934;54.294;18.598;2023-07-31T07:59:04;3.30;;;1.42;;
57047;SDS011;42934;54.294;18.598;2023-07-31T08:01:33;4.35;;;1.50;;
57047;SDS011;42934;54.294;18.598;2023-07-31T08:04:05;3.08;;;1.30;;
57047;SDS011;42934;54.294;18.598;2023-07-31T08:06:34;3.92;;;1.20;;
57047;SDS011;42934;54.294;18.598;2023-07-31T08:09:04;5.28;;;1.52;;
57047;SDS011;42934;54.294;18.598;2023-07-31T08:14:03;4.57;;;1.20;;
57047;SDS011;42934;54.294;18.598;2023-07-31T08:16:32;4.60;;;1.30;;
57047;SDS011;42934;54.294;18.598;2023-07-31T08:19:03;4.40;;;1.20;;
57047;SDS011;42934;54.294;18.598;2023-07-31T08:21:32;3.28;;;1.00;;
57047;SDS011;42934;54.294;18.598;2023-07-31T08:24:02;2.10;;;0.93;;
57047;SDS011;42934;54.294;18.598;2023-07-31T08:26:31;3.38;;;1.02;;
57047;SDS011;42934;54.294;18.598;2023-07-31T08:29:00;2.50;;;1.02;;
57047;SDS011;42934;54.294;18.598;2023-07-31T08:31:30;2.95;;;1.20;;
57047;SDS011;42934;54.294;18.598;2023-07-31T08:33:59;2.40;;;1.03;;
57047;SDS011;42934;54.294;18.598;2023-07-31T08:36:30;1.98;;;0.90;;
57047;SDS011;42934;54.294;18.598;2023-07-31T08:38:59;2.65;;;1.00;;
57047;SDS011;42934;54.294;18.598;2023-07-31T08:41:29;2.70;;;1.02;;
57047;SDS011;42934;54.294;18.598;2023-07-31T08:43:58;4.43;;;1.00;;
57047;SDS011;42934;54.294;18.598;2023-07-31T08:46:29;2.40;;;0.75;;
57047;SDS011;42934;54.294;18.598;2023-07-31T08:48:59;3.33;;;1.10;;
57047;SDS011;42934;54.294;18.598;2023-07-31T08:51:33;6.00;;;1.30;;
57047;SDS011;42934;54.294;18.598;2023-07-31T08:54:02;2.65;;;0.98;;
57047;SDS011;42934;54.294;18.598;2023-07-31T08:56:32;2.15;;;0.80;;
57047;SDS011;42934;54.294;18.598;2023-07-31T08:59:04;1.08;;;0.80;;
57047;SDS011;42934;54.294;18.598;2023-07-31T09:01:35;1.40;;;0.88;;
57047;SDS011;42934;54.294;18.598;2023-07-31T09:04:08;3.45;;;1.00;;
57047;SDS011;42934;54.294;18.598;2023-07-31T09:06:41;1.77;;;1.00;;
57047;SDS011;42934;54.294;18.598;2023-07-31T09:09:12;3.25;;;1.02;;
57047;SDS011;42934;54.294;18.598;2023-07-31T09:11:42;1.85;;;1.08;;
57047;SDS011;42934;54.294;18.598;2023-07-31T09:14:11;2.17;;;1.00;;
57047;SDS011;42934;54.294;18.598;2023-07-31T09:16:53;2.03;;;0.90;;
57047;SDS011;42934;54.294;18.598;2023-07-31T09:19:25;3.90;;;0.73;;
57047;SDS011;42934;54.294;18.598;2023-07-31T09:21:56;2.70;;;1.00;;
57047;SDS011;42934;54.294;18.598;2023-07-31T09:24:26;3.20;;;1.00;;
57047;SDS011;42934;54.294;18.598;2023-07-31T09:26:57;5.40;;;1.10;;
57047;SDS011;42934;54.294;18.598;2023-07-31T09:29:27;3.40;;;1.13;;
57047;SDS011;42934;54.294;18.598;2023-07-31T09:31:58;2.90;;;1.10;;
57047;SDS011;42934;54.294;18.598;2023-07-31T09:34:30;3.27;;;1.30;;
57047;SDS011;42934;54.294;18.598;2023-07-31T09:37:08;2.92;;;1.10;;
57047;SDS011;42934;54.294;18.598;2023-07-31T09:39:45;3.97;;;1.30;;
57047;SDS011;42934;54.294;18.598;2023-07-31T09:42:24;3.75;;;1.20;;
57047;SDS011;42934;54.294;18.598;2023-07-31T09:44:55;3.08;;;1.02;;
57047;SDS011;42934;54.294;18.598;2023-07-31T09:47:36;4.07;;;1.05;;
57047;SDS011;42934;54.294;18.598;2023-07-31T09:50:07;1.10;;;0.90;;
57047;SDS011;42934;54.294;18.598;2023-07-31T09:52:39;2.67;;;1.00;;
57047;SDS011;42934;54.294;18.598;2023-07-31T09:55:08;3.92;;;1.08;;
57047;SDS011;42934;54.294;18.598;2023-07-31T09:57:39;3.15;;;0.80;;
57047;SDS011;42934;54.294;18.598;2023-07-31T10:00:11;5.15;;;1.10;;
57047;SDS011;42934;54.294;18.598;2023-07-31T10:02:43;3.67;;;1.02;;
57047;SDS011;42934;54.294;18.598;2023-07-31T10:05:15;3.47;;;1.27;;
57047;SDS011;42934;54.294;18.598;2023-07-31T10:10:19;2.13;;;1.13;;
57047;SDS011;42934;54.294;18.598;2023-07-31T10:12:49;3.03;;;1.15;;
57047;SDS011;42934;54.294;18.598;2023-07-31T10:15:20;6.35;;;1.30;;
57047;SDS011;42934;54.294;18.598;2023-07-31T10:17:51;2.83;;;1.25;;
57047;SDS011;42934;54.294;18.598;2023-07-31T10:20:23;3.28;;;1.05;;
57047;SDS011;42934;54.294;18.598;2023-07-31T10:25:24;1.98;;;1.20;;
57047;SDS011;42934;54.294;18.598;2023-07-31T10:27:55;2.38;;;0.90;;
57047;SDS011;42934;54.294;18.598;2023-07-31T10:30:26;3.72;;;0.90;;
57047;SDS011;42934;54.294;18.598;2023-07-31T10:32:57;1.75;;;0.70;;
57047;SDS011;42934;54.294;18.598;2023-07-31T10:35:27;1.55;;;0.88;;
57047;SDS011;42934;54.294;18.598;2023-07-31T10:38:04;4.53;;;0.95;;
57047;SDS011;42934;54.294;18.598;2023-07-31T10:40:39;1.73;;;0.90;;
57047;SDS011;42934;54.294;18.598;2023-07-31T10:43:09;3.17;;;1.30;;
57047;SDS011;42934;54.294;18.598;2023-07-31T10:45:51;3.40;;;1.10;;
57047;SDS011;42934;54.294;18.598;2023-07-31T10:48:21;3.60;;;1.00;;
57047;SDS011;42934;54.294;18.598;2023-07-31T10:50:51;4.43;;;0.90;;
57047;SDS011;42934;54.294;18.598;2023-07-31T10:53:26;3.05;;;0.90;;
57047;SDS011;42934;54.294;18.598;2023-07-31T10:55:57;1.95;;;0.80;;
57047;SDS011;42934;54.294;18.598;2023-07-31T10:58:27;4.15;;;1.23;;
57047;SDS011;42934;54.294;18.598;2023-07-31T11:00:58;1.63;;;0.98;;
57047;SDS011;42934;54.294;18.598;2023-07-31T11:03:43;3.40;;;1.02;;
57047;SDS011;42934;54.294;18.598;2023-07-31T11:06:14;4.78;;;1.08;;
57047;SDS011;42934;54.294;18.598;2023-07-31T11:08:47;3.35;;;0.88;;
57047;SDS011;42934;54.294;18.598;2023-07-31T11:11:18;3.47;;;0.95;;
57047;SDS011;42934;54.294;18.598;2023-07-31T11:13:49;2.53;;;1.00;;
57047;SDS011;42934;54.294;18.598;2023-07-31T11:16:20;6.82;;;1.17;;
57047;SDS011;42934;54.294;18.598;2023-07-31T11:18:51;7.63;;;1.40;;
57047;SDS011;42934;54.294;18.598;2023-07-31T11:21:24;2.75;;;1.00;;
57047;SDS011;42934;54.294;18.598;2023-07-31T11:23:57;4.22;;;1.27;;
57047;SDS011;42934;54.294;18.598;2023-07-31T11:26:26;2.13;;;0.85;;
57047;SDS011;42934;54.294;18.598;2023-07-31T11:28:58;3.33;;;1.05;;
57047;SDS011;42934;54.294;18.598;2023-07-31T11:31:27;3.13;;;1.20;;
57047;SDS011;42934;54.294;18.598;2023-07-31T11:34:04;8.80;;;1.15;;
57047;SDS011;42934;54.294;18.598;2023-07-31T11:36:33;2.45;;;1.23;;
57047;SDS011;42934;54.294;18.598;2023-07-31T11:39:07;2.58;;;1.05;;
57047;SDS011;42934;54.294;18.598;2023-07-31T11:41:40;3.85;;;1.40;;
57047;SDS011;42934;54.294;18.598;2023-07-31T11:44:09;3.13;;;1.30;;
57047;SDS011;42934;54.294;18.598;2023-07-31T11:46:53;4.20;;;1.27;;
57047;SDS011;42934;54.294;18.598;2023-07-31T11:49:25;4.20;;;1.40;;
57047;SDS011;42934;54.294;18.598;2023-07-31T11:51:54;2.42;;;1.08;;
57047;SDS011;42934;54.294;18.598;2023-07-31T11:54:25;5.72;;;1.50;;
57047;SDS011;42934;54.294;18.598;2023-07-31T11:56:55;2.65;;;1.17;;
57047;SDS011;42934;54.294;18.598;2023-07-31T11:59:24;11.52;;;1.60;;
57047;SDS011;42934;54.294;18.598;2023-07-31T12:01:54;2.10;;;1.30;;
57047;SDS011;42934;54.294;18.598;2023-07-31T12:04:23;6.13;;;1.20;;
57047;SDS011;42934;54.294;18.598;2023-07-31T12:06:53;4.15;;;1.35;;
57047;SDS011;42934;54.294;18.598;2023-07-31T12:09:26;2.92;;;1.23;;
57047;SDS011;42934;54.294;18.598;2023-07-31T12:11:55;4.03;;;1.35;;
57047;SDS011;42934;54.294;18.598;2023-07-31T12:14:26;5.80;;;1.38;;
57047;SDS011;42934;54.294;18.598;2023-07-31T12:16:56;5.72;;;1.20;;
57047;SDS011;42934;54.294;18.598;2023-07-31T12:19:27;15.90;;;2.20;;
57047;SDS011;42934;54.294;18.598;2023-07-31T12:21:58;32.03;;;1.90;;
57047;SDS011;42934;54.294;18.598;2023-07-31T12:24:30;6.07;;;1.70;;
57047;SDS011;42934;54.294;18.598;2023-07-31T12:27:07;41.40;;;3.08;;
57047;SDS011;42934;54.294;18.598;2023-07-31T12:29:38;14.05;;;1.95;;
57047;SDS011;42934;54.294;18.598;2023-07-31T12:32:20;3.17;;;1.40;;
57047;SDS011;42934;54.294;18.598;2023-07-31T12:34:51;17.02;;;1.80;;
57047;SDS011;42934;54.294;18.598;2023-07-31T12:37:20;18.77;;;2.57;;
57047;SDS011;42934;54.294;18.598;2023-07-31T12:39:51;4.85;;;1.50;;
57047;SDS011;42934;54.294;18.598;2023-07-31T12:42:20;4.20;;;1.40;;
57047;SDS011;42934;54.294;18.598;2023-07-31T12:44:50;4.75;;;1.42;;
57047;SDS011;42934;54.294;18.598;2023-07-31T12:47:19;4.50;;;1.30;;
57047;SDS011;42934;54.294;18.598;2023-07-31T12:49:48;3.38;;;1.20;;
57047;SDS011;42934;54.294;18.598;2023-07-31T12:52:17;3.97;;;1.37;;
57047;SDS011;42934;54.294;18.598;2023-07-31T12:54:47;6.15;;;1.45;;
57047;SDS011;42934;54.294;18.598;2023-07-31T12:57:17;11.35;;;1.65;;
57047;SDS011;42934;54.294;18.598;2023-07-31T12:59:47;9.88;;;2.10;;
57047;SDS011;42934;54.294;18.598;2023-07-31T13:02:16;7.67;;;1.43;;
57047;SDS011;42934;54.294;18.598;2023-07-31T13:04:47;4.30;;;1.55;;
57047;SDS011;42934;54.294;18.598;2023-07-31T13:07:18;6.55;;;1.42;;
57047;SDS011;42934;54.294;18.598;2023-07-31T13:09:47;3.38;;;1.50;;
57047;SDS011;42934;54.294;18.598;2023-07-31T13:12:18;7.82;;;1.60;;
57047;SDS011;42934;54.294;18.598;2023-07-31T13:14:47;2.22;;;1.30;;
57047;SDS011;42934;54.294;18.598;2023-07-31T13:17:19;17.52;;;2.55;;
57047;SDS011;42934;54.294;18.598;2023-07-31T13:19:49;7.50;;;2.13;;
57047;SDS011;42934;54.294;18.598;2023-07-31T13:22:18;7.67;;;1.50;;
57047;SDS011;42934;54.294;18.598;2023-07-31T13:24:48;3.80;;;1.55;;
57047;SDS011;42934;54.294;18.598;2023-07-31T13:27:18;8.03;;;1.87;;
57047;SDS011;42934;54.294;18.598;2023-07-31T13:29:48;5.75;;;1.40;;
57047;SDS011;42934;54.294;18.598;2023-07-31T13:32:18;5.80;;;1.52;;
57047;SDS011;42934;54.294;18.598;2023-07-31T13:34:48;3.20;;;1.67;;
57047;SDS011;42934;54.294;18.598;2023-07-31T13:37:19;3.47;;;1.60;;
57047;SDS011;42934;54.294;18.598;2023-07-31T13:39:48;10.10;;;2.00;;
57047;SDS011;42934;54.294;18.598;2023-07-31T13:42:19;14.60;;;2.15;;
57047;SDS011;42934;54.294;18.598;2023-07-31T13:44:49;7.78;;;1.52;;
57047;SDS011;42934;54.294;18.598;2023-07-31T13:47:18;7.13;;;1.33;;
57047;SDS011;42934;54.294;18.598;2023-07-31T13:49:48;24.95;;;2.45;;
57047;SDS011;42934;54.294;18.598;2023-07-31T13:52:17;9.53;;;1.90;;
57047;SDS011;42934;54.294;18.598;2023-07-31T13:54:46;11.25;;;2.55;;
57047;SDS011;42934;54.294;18.598;2023-07-31T13:57:15;21.57;;;2.10;;
57047;SDS011;42934;54.294;18.598;2023-07-31T13:59:46;15.80;;;1.88;;
57047;SDS011;42934;54.294;18.598;2023-07-31T14:02:15;3.45;;;1.20;;
57047;SDS011;42934;54.294;18.598;2023-07-31T14:04:45;6.65;;;1.58;;
57047;SDS011;42934;54.294;18.598;2023-07-31T14:07:14;3.33;;;1.17;;
57047;SDS011;42934;54.294;18.598;2023-07-31T14:09:44;5.68;;;1.40;;
57047;SDS011;42934;54.294;18.598;2023-07-31T14:12:14;6.40;;;1.23;;
57047;SDS011;42934;54.294;18.598;2023-07-31T14:15:05;3.53;;;0.93;;
57047;SDS011;42934;54.294;18.598;2023-07-31T14:17:35;2.88;;;1.20;;
57047;SDS011;42934;54.294;18.598;2023-07-31T14:22:35;1.17;;;0.75;;
57047;SDS011;42934;54.294;18.598;2023-07-31T14:25:05;1.65;;;1.00;;
57047;SDS011;42934;54.294;18.598;2023-07-31T14:27:37;2.35;;;1.23;;
57047;SDS011;42934;54.294;18.598;2023-07-31T14:30:08;2.53;;;1.20;;
57047;SDS011;42934;54.294;18.598;2023-07-31T14:32:38;3.80;;;1.52;;
57047;SDS011;42934;54.294;18.598;2023-07-31T14:35:07;4.43;;;1.80;;
57047;SDS011;42934;54.294;18.598;2023-07-31T14:37:37;1.98;;;1.40;;
57047;SDS011;42934;54.294;18.598;2023-07-31T14:40:07;2.03;;;1.25;;
57047;SDS011;42934;54.294;18.598;2023-07-31T14:42:38;1.88;;;1.05;;
57047;SDS011;42934;54.294;18.598;2023-07-31T14:45:09;2.83;;;1.20;;
57047;SDS011;42934;54.294;18.598;2023-07-31T14:47:39;2.00;;;1.00;;
57047;SDS011;42934;54.294;18.598;2023-07-31T14:50:09;2.25;;;1.10;;
57047;SDS011;42934;54.294;18.598;2023-07-31T14:52:38;1.67;;;0.70;;
57047;SDS011;42934;54.294;18.598;2023-07-31T14:55:07;1.75;;;0.90;;
57047;SDS011;42934;54.294;18.598;2023-07-31T14:57:37;1.05;;;0.93;;
57047;SDS011;42934;54.294;18.598;2023-07-31T15:00:07;1.88;;;1.00;;
57047;SDS011;42934;54.294;18.598;2023-07-31T15:02:38;4.30;;;1.15;;
57047;SDS011;42934;54.294;18.598;2023-07-31T15:05:08;2.35;;;1.10;;
57047;SDS011;42934;54.294;18.598;2023-07-31T15:07:37;1.50;;;0.98;;
57047;SDS011;42934;54.294;18.598;2023-07-31T15:10:07;1.33;;;1.00;;